Content
SEND FEEDBACK

Daily
Averages
Monthly
Summary
United States of America

PLACERVILLE, CALIFORNIA


Home > North America > United States > California
Elevation: 2590 feet     Latitude: 38 43N     Longitude: 120 45W

WEATHER
 
SELECT A DAY
Number of Records: 93,184;   Date Range: 7/10/09 - 7/10/14
 
SHARE

PRINT THIS DATA

[ ← Previous Day ]
WEATHER ALMANAC - JANUARY 16, 2013
[ Next Day → ]
[ °C ]   °F
Weather ElementAverageHighLow
Temperature47.1 °F55.4 °F (11:15 am)41 °F (12:35 am)
Dewpoint21.2 °F26.6 °F (12:35 am)8.6 °F (6:35 am)
Humidity36.8 %57 % (12:35 am)23 % (6:35 am)
Wind Speed2.6 mph8.1 mph (7:15 pm)
Weather ElementAverage
Visibility10 mi
Wind DirectionE (89 °)

Weather ElementTotal
Precipitation---
Heating Degree Days16.8 (Base 65)
Averaged from 61 records on January 16, 2013
WEATHER CONDITIONS BREAKOUT
WIND DIRECTION BREAKOUT
WEATHER BY HOUR - JANUARY 16, 2013
[ °C ]   °F
Local TimeTemperatureDewpointHumidityBarometerVisibilityWind DirectionWind SpeedGust SpeedPrecipitationEventsConditions
12:35 AM41.0 °F26.6 °F57 %30.40 in10.0 miCalmClear
1:15 AM41.0 °F26.6 °F57 %30.40 in10.0 miCalmClear
1:35 AM41.0 °F24.8 °F53 %30.40 in10.0 miCalmClear
1:55 AM42.8 °F23.0 °F46 %30.40 in10.0 miESE (110°)3.5 mphClear
2:15 AM42.8 °F23.0 °F46 %30.40 in10.0 miESE (120°)3.5 mphClear
2:35 AM41.0 °F21.2 °F45 %30.40 in10.0 miESE (120°)3.5 mphClear
2:55 AM41.0 °F21.2 °F45 %30.40 in10.0 miESE (110°)4.6 mphClear
3:15 AM41.0 °F19.4 °F42 %30.40 in10.0 miESE (110°)4.6 mphClear
3:35 AM41.0 °F19.4 °F42 %30.39 in10.0 miESE (120°)4.6 mphClear
4:15 AM42.8 °F17.6 °F36 %30.39 in10.0 miCalmClear
4:35 AM42.8 °F17.6 °F36 %30.39 in10.0 miCalmClear
4:55 AM41.0 °F17.6 °F39 %30.39 in10.0 miCalmClear
5:15 AM42.8 °F15.8 °F34 %30.38 in10.0 miCalmClear
5:35 AM41.0 °F15.8 °F36 %30.38 in10.0 miEast (90°)4.6 mphClear
5:55 AM42.8 °F14.0 °F31 %30.38 in10.0 miCalmClear
6:15 AM44.6 °F12.2 °F27 %30.38 in10.0 miCalmClear
6:35 AM44.6 °F8.6 °F23 %30.38 in10.0 miCalmClear
6:55 AM44.6 °F8.6 °F23 %30.38 in10.0 miCalmClear
7:15 AM42.8 °F14.0 °F31 %30.38 in10.0 miSE (130°)4.6 mphClear
7:55 AM44.6 °F14.0 °F29 %ESE (120°)3.5 mphClear
8:15 AM46.4 °F15.8 °F29 %CalmClear
8:35 AM46.4 °F15.8 °F29 %CalmClear
8:55 AM46.4 °F15.8 °F29 %ESE (110°)3.5 mphClear
9:15 AM48.2 °F15.8 °F27 %CalmClear
9:35 AM50.0 °F17.6 °F28 %SE (130°)3.5 mphClear
9:55 AM50.0 °F17.6 °F28 %SSE (160°)3.5 mphClear
10:15 AM51.8 °F17.6 °F26 %SE (140°)3.5 mphClear
10:35 AM53.6 °F19.4 °F26 %South (170°)3.5 mphClear
10:55 AM53.6 °F21.2 °F28 %SSW (210°)3.5 mphClear
11:15 AM55.4 °F23.0 °F29 %SSW (210°)3.5 mphClear
11:55 AM55.4 °F23.0 °F29 %WSW (240°)5.8 mphClear
12:15 PM55.4 °F23.0 °F29 %SSW (210°)5.8 mphClear
12:55 PM51.8 °F21.2 °F30 %West (280°)3.5 mphClear
1:35 PM51.8 °F23.0 °F33 %NNW (330°)4.6 mphClear
1:55 PM53.6 °F23.0 °F30 %WNW (300°)4.6 mphClear
2:15 PM53.6 °F23.0 °F30 %NNW (330°)3.5 mphClear
2:55 PM53.6 °F24.8 °F33 %WNW (290°)4.6 mphClear
3:35 PM51.8 °F24.8 °F35 %CalmClear
3:55 PM51.8 °F24.8 °F35 %CalmClear
4:15 PM51.8 °F24.8 °F35 %WNW (290°)5.8 mphClear
4:35 PM50.0 °F24.8 °F37 %NW (310°)3.5 mphClear
4:55 PM50.0 °F24.8 °F37 %CalmClear
5:15 PM48.2 °F24.8 °F40 %CalmClear
5:35 PM46.4 °F24.8 °F43 %CalmClear
5:55 PM46.4 °F24.8 °F43 %CalmClear
6:15 PM46.4 °F24.8 °F43 %CalmClear
6:55 PM42.8 °F26.6 °F53 %East (100°)6.9 mphClear
7:15 PM44.6 °F26.6 °F49 %East (90°)8.1 mphClear
7:35 PM44.6 °F26.6 °F49 %East (90°)8.1 mphClear
7:55 PM46.4 °F24.8 °F43 %East (90°)6.9 mphClear
8:15 PM46.4 °F24.8 °F43 %East (80°)5.8 mphClear
8:35 PM46.4 °F26.6 °F46 %East (80°)5.8 mphClear
8:55 PM48.2 °F24.8 °F40 %NE (50°)4.6 mphClear
9:15 PM48.2 °F24.8 °F40 %NE (50°)3.5 mphClear
9:35 PM48.2 °F24.8 °F40 %ENE (60°)3.5 mphClear
9:55 PM50.0 °F23.0 °F35 %CalmClear
10:15 PM48.2 °F23.0 °F37 %CalmClear
10:55 PM48.2 °F23.0 °F37 %CalmClear
11:15 PM48.2 °F21.2 °F34 %CalmClear
11:35 PM48.2 °F21.2 °F34 %CalmClear
11:55 PM48.2 °F26.6 °F43 %CalmClear
Hourly data recorded from KPVF, located miles away from Placerville, California







STORIES FROM OUR PARTNERS